Purdy, Washington
Current Conditions -  °F | °C
As of 12:53 PM on Sunday 23 Nov 2014 (Local Time) from KTIW Reporting Station
Scattered Clouds Scattered Clouds  
Wind Chill: 54°   Ceiling: Unl
Heat Index: 54°   Visibility: 10mi
Dew Point: 46°   Wind: 10mph
Humidity: 75%   Direction: 200°SSW
Pressure: 30.14"   Gusts: NA
Location:  47.2986°N, 122.616°W
Report Text: KTIW 232053Z 20009KT 10SM SCT035 12/08 A3014 RMK AO2 SLP207 60000 T01220078 51009
Loading
Personal Weather Stations






























Interactive Weather Map New forecast layout! Learn more

10-Day Weather Forecast

Advertisements
Track Severe Weather on mobile